createdAt,value
2023-05-10T00:02:25.826Z,99948.25
2023-05-10T00:04:53.459Z,99946.41
2023-05-10T00:07:20.098Z,99943.84
2023-05-10T00:09:46.615Z,99932.44
2023-05-10T00:12:13.140Z,99932.53
2023-05-10T00:14:39.598Z,99924.56
2023-05-10T00:17:06.150Z,99917.09
2023-05-10T00:19:33.145Z,99906.59
2023-05-10T00:21:59.627Z,99910.81
2023-05-10T00:24:26.227Z,99909.09
2023-05-10T00:26:53.154Z,99906.50
2023-05-10T00:29:20.517Z,99898.72
2023-05-10T00:31:47.165Z,99891.03
2023-05-10T00:34:13.694Z,99888.25
2023-05-10T00:36:40.377Z,99879.78
2023-05-10T00:39:07.143Z,99871.28
2023-05-10T00:41:33.795Z,99861.88
2023-05-10T00:44:00.565Z,99865.22
2023-05-10T00:46:27.914Z,99858.38
2023-05-10T00:48:54.675Z,99866.06
2023-05-10T00:51:21.735Z,99858.34
2023-05-10T00:53:50.394Z,99863.50
2023-05-10T00:56:17.293Z,99862.59
2023-05-10T00:58:44.110Z,99870.28
2023-05-10T01:01:11.847Z,99867.72
2023-05-10T01:03:38.587Z,99877.84
2023-05-10T01:06:05.501Z,99879.72
2023-05-10T01:08:32.390Z,99883.03
2023-05-10T01:10:59.271Z,99881.41
2023-05-10T01:13:36.052Z,99879.81
2023-05-10T01:16:05.920Z,99879.75
2023-05-10T01:18:35.157Z,99884.78
2023-05-10T01:21:28.493Z,99894.16
2023-05-10T01:24:33.343Z,99885.50
2023-05-10T01:27:14.198Z,99885.34
2023-05-10T01:30:14.195Z,99892.13
2023-05-10T01:32:46.282Z,99885.34
2023-05-10T01:35:38.464Z,99870.03
2023-05-10T01:38:31.394Z,99875.84
2023-05-10T01:41:18.500Z,99870.63
2023-05-10T01:43:58.374Z,99860.44
2023-05-10T01:46:42.851Z,99853.38
2023-05-10T01:49:16.017Z,99851.66
2023-05-10T01:51:53.535Z,99852.47
2023-05-10T01:54:22.677Z,99845.69
2023-05-10T01:56:56.456Z,99852.59
2023-05-10T01:59:25.497Z,99858.53
2023-05-10T02:01:53.478Z,99856.84
2023-05-10T02:04:23.441Z,99856.88
2023-05-10T02:06:52.175Z,99857.66
2023-05-10T02:09:20.997Z,99861.94
2023-05-10T02:11:50.275Z,99857.59
2023-05-10T02:14:17.722Z,99857.72
2023-05-10T02:16:45.815Z,99860.97
2023-05-10T02:19:13.260Z,99864.44
2023-05-10T02:21:41.068Z,99866.25
2023-05-10T02:24:09.603Z,99854.97
2023-05-10T02:26:37.309Z,99856.81
2023-05-10T02:29:05.565Z,99849.84
2023-05-10T02:31:34.301Z,99860.22
2023-05-10T02:34:02.515Z,99862.78
2023-05-10T02:36:30.106Z,99867.91
2023-05-10T02:38:57.914Z,99857.56
2023-05-10T02:41:26.012Z,99861.09
2023-05-10T02:43:58.175Z,99861.88
2023-05-10T02:46:24.999Z,99866.25
2023-05-10T02:48:51.786Z,99874.03
2023-05-10T02:51:20.272Z,99873.09
2023-05-10T02:53:49.434Z,99871.38
2023-05-10T02:56:26.057Z,99877.31
2023-05-10T02:58:53.743Z,99875.66
2023-05-10T03:01:20.301Z,99868.94
2023-05-10T03:03:46.858Z,99866.53
2023-05-10T03:06:13.504Z,99853.56
2023-05-10T03:08:40.139Z,99839.47
2023-05-10T03:11:15.561Z,99829.72
2023-05-10T03:14:03.086Z,99804.75
2023-05-10T03:16:36.813Z,99797.63
2023-05-10T03:19:13.901Z,99794.16
2023-05-10T03:21:44.341Z,99796.59
2023-05-10T03:24:13.350Z,99792.06
2023-05-10T03:26:41.149Z,99787.63
2023-05-10T03:29:09.037Z,99793.22
2023-05-10T03:31:35.718Z,99815.50
2023-05-10T03:34:02.306Z,99816.16
2023-05-10T03:36:29.184Z,99830.84
2023-05-10T03:38:55.732Z,99829.41
2023-05-10T03:41:22.398Z,99831.38
2023-05-10T03:43:48.988Z,99821.47
2023-05-10T03:46:15.683Z,99812.81
2023-05-10T03:48:42.205Z,99817.03
2023-05-10T03:51:08.739Z,99814.28
2023-05-10T03:53:35.287Z,99817.00
2023-05-10T03:56:01.816Z,99803.34
2023-05-10T03:58:28.378Z,99806.66
2023-05-10T04:00:55.195Z,99808.38
2023-05-10T04:03:21.907Z,99807.28
2023-05-10T04:05:48.538Z,99809.13
2023-05-10T04:08:17.295Z,99810.00
2023-05-10T04:10:43.859Z,99808.91
2023-05-10T04:13:10.824Z,99805.56
2023-05-10T04:15:37.628Z,99809.06
2023-05-10T04:18:06.493Z,99808.94
2023-05-10T04:20:34.900Z,99813.19
2023-05-10T04:23:01.489Z,99797.91
2023-05-10T04:25:28.093Z,99802.31
2023-05-10T04:27:55.171Z,99801.44
2023-05-10T04:30:21.828Z,99795.66
2023-05-10T04:32:48.520Z,99801.56
2023-05-10T04:35:15.829Z,99803.25
2023-05-10T04:37:42.293Z,99802.34
2023-05-10T04:40:09.533Z,99813.47
2023-05-10T04:42:36.037Z,99805.56
2023-05-10T04:45:02.579Z,99808.31
2023-05-10T04:47:29.145Z,99809.00
2023-05-10T04:49:55.667Z,99809.91
2023-05-10T04:52:22.206Z,99804.78
2023-05-10T04:54:48.711Z,99803.94
2023-05-10T04:57:15.244Z,99799.66
2023-05-10T04:59:41.806Z,99810.84
2023-05-10T05:02:08.435Z,99803.81
2023-05-10T05:04:35.069Z,99816.56
2023-05-10T05:07:01.636Z,99810.63
2023-05-10T05:09:28.116Z,99814.06
2023-05-10T05:11:55.679Z,99820.03
2023-05-10T05:14:22.233Z,99826.97
2023-05-10T05:16:48.839Z,99831.19
2023-05-10T05:19:15.561Z,99829.53
2023-05-10T05:21:42.177Z,99827.88
2023-05-10T05:24:09.599Z,99831.50
2023-05-10T05:26:36.114Z,99830.31
2023-05-10T05:29:02.872Z,99841.38
2023-05-10T05:31:29.836Z,99844.63
2023-05-10T05:33:56.630Z,99843.94
2023-05-10T05:36:23.998Z,99850.75
2023-05-10T05:38:50.623Z,99862.00
2023-05-10T05:41:17.166Z,99862.88
2023-05-10T05:43:43.795Z,99868.16
2023-05-10T05:46:10.457Z,99870.50
2023-05-10T05:48:37.080Z,99877.41
2023-05-10T05:51:05.160Z,99883.84
2023-05-10T05:53:33.692Z,99882.22
2023-05-10T05:56:00.275Z,99885.69
2023-05-10T05:58:26.995Z,99893.81
2023-05-10T06:00:54.008Z,99889.84
2023-05-10T06:03:21.262Z,99902.09
2023-05-10T06:05:48.781Z,99908.19
2023-05-10T06:08:15.626Z,99900.47
2023-05-10T06:10:42.141Z,99898.22
2023-05-10T06:13:08.917Z,99893.97
2023-05-10T06:15:36.096Z,99886.63
2023-05-10T06:18:02.880Z,99881.31
2023-05-10T06:20:29.529Z,99873.53
2023-05-10T06:22:56.300Z,99876.94
2023-05-10T06:25:22.799Z,99871.72
2023-05-10T06:27:53.423Z,99873.44
2023-05-10T06:30:21.296Z,99870.72
2023-05-10T06:32:48.000Z,99872.44
2023-05-10T06:35:14.667Z,99874.09
2023-05-10T06:37:41.271Z,99874.03
2023-05-10T06:40:08.600Z,99883.72
2023-05-10T06:42:35.225Z,99878.75
2023-05-10T06:45:01.888Z,99889.19
2023-05-10T06:47:28.561Z,99884.31
2023-05-10T06:49:55.132Z,99892.19
2023-05-10T06:52:21.832Z,99895.59
2023-05-10T06:54:48.354Z,99902.66
2023-05-10T06:57:27.612Z,99922.41
2023-05-10T06:59:57.689Z,99935.44
2023-05-10T07:02:24.236Z,99948.22
2023-05-10T07:04:52.861Z,99956.75
2023-05-10T07:07:20.098Z,99964.63
2023-05-10T07:09:47.040Z,99985.44
2023-05-10T07:12:15.397Z,99989.97
2023-05-10T07:14:43.135Z,100018.34
2023-05-10T07:17:09.898Z,100032.25
2023-05-10T07:19:36.946Z,100053.09
2023-05-10T07:22:03.719Z,100076.84
2023-05-10T07:24:30.889Z,100098.38
2023-05-10T07:26:57.418Z,100123.00
2023-05-10T07:29:24.073Z,100141.41
2023-05-10T07:31:50.646Z,100151.78
2023-05-10T07:34:17.221Z,100163.66
2023-05-10T07:36:43.994Z,100160.22
2023-05-10T07:39:12.646Z,100171.22
2023-05-10T07:41:40.996Z,100186.31
2023-05-10T07:44:07.516Z,100175.69
2023-05-10T07:46:34.003Z,100187.69
2023-05-10T07:49:00.823Z,100190.31
2023-05-10T07:51:27.494Z,100209.28
2023-05-10T07:53:53.989Z,100240.06
2023-05-10T07:56:27.561Z,100242.53
2023-05-10T07:58:55.318Z,100236.63
2023-05-10T08:01:21.903Z,100264.66
2023-05-10T08:03:48.660Z,100281.78
2023-05-10T08:06:16.524Z,100291.06
2023-05-10T08:08:43.279Z,100294.22
2023-05-10T08:11:10.042Z,100300.47
2023-05-10T08:13:36.680Z,100306.94
2023-05-10T08:16:03.313Z,100321.13
2023-05-10T08:18:29.922Z,100339.53
2023-05-10T08:20:56.548Z,100354.47
2023-05-10T08:23:23.042Z,100356.09
2023-05-10T08:25:49.596Z,100364.59
2023-05-10T08:28:16.173Z,100368.38
2023-05-10T08:30:42.735Z,100359.84
2023-05-10T08:33:09.479Z,100366.56
2023-05-10T08:35:36.085Z,100367.03
2023-05-10T08:38:02.991Z,100380.91
2023-05-10T08:40:29.566Z,100393.16
2023-05-10T08:43:04.157Z,100386.41
2023-05-10T08:45:34.704Z,100387.06
2023-05-10T08:48:03.170Z,100385.88
2023-05-10T08:50:31.109Z,100395.53
2023-05-10T08:53:02.435Z,100402.88
2023-05-10T08:55:31.221Z,100397.50
2023-05-10T08:57:57.953Z,100413.19
2023-05-10T09:00:24.758Z,100429.31
2023-05-10T09:02:51.493Z,100411.22
2023-05-10T09:05:18.941Z,100408.81
2023-05-10T09:07:45.955Z,100411.94
2023-05-10T09:10:14.184Z,100420.72
2023-05-10T09:12:41.940Z,100417.13
2023-05-10T09:15:10.813Z,100409.84
2023-05-10T09:17:38.213Z,100411.91
2023-05-10T09:20:05.850Z,100404.97
2023-05-10T09:22:32.760Z,100401.38
2023-05-10T09:25:09.445Z,100409.69
2023-05-10T09:27:36.957Z,100407.56
2023-05-10T09:30:06.307Z,100405.50
2023-05-10T09:32:43.037Z,100399.19
2023-05-10T09:35:14.230Z,100395.59
2023-05-10T09:37:42.981Z,100396.72
2023-05-10T09:40:17.000Z,100400.94
2023-05-10T09:42:52.704Z,100391.34
2023-05-10T09:45:19.529Z,100389.81
2023-05-10T09:47:47.044Z,100394.66
2023-05-10T09:50:13.862Z,100384.91
2023-05-10T09:52:52.203Z,100378.72
2023-05-10T09:55:20.924Z,100402.84
2023-05-10T09:57:49.185Z,100386.00
2023-05-10T10:00:20.437Z,100372.72
2023-05-10T10:02:49.149Z,100372.06
2023-05-10T10:05:16.064Z,100377.88
2023-05-10T10:07:43.215Z,100380.47
2023-05-10T10:10:13.260Z,100379.38
2023-05-10T10:12:41.595Z,100375.72
2023-05-10T10:15:09.665Z,100370.13
2023-05-10T10:17:39.897Z,100367.19
2023-05-10T10:20:10.484Z,100377.31
2023-05-10T10:22:38.856Z,100369.59
2023-05-10T10:25:06.748Z,100367.00
2023-05-10T10:27:59.176Z,100358.63
2023-05-10T10:30:32.644Z,100355.03
2023-05-10T10:33:36.670Z,100362.13
2023-05-10T10:36:05.110Z,100358.03
2023-05-10T10:39:01.687Z,100362.47
2023-05-10T10:41:36.700Z,100355.84
2023-05-10T10:44:40.157Z,100359.81
2023-05-10T10:47:19.619Z,100341.16
2023-05-10T10:49:52.619Z,100341.88
2023-05-10T10:52:23.855Z,100355.53
2023-05-10T10:55:10.785Z,100346.09
2023-05-10T10:57:45.764Z,100339.66
2023-05-10T11:00:32.263Z,100343.34
2023-05-10T11:03:18.022Z,100346.50
2023-05-10T11:05:48.707Z,100346.53
2023-05-10T11:08:31.519Z,100374.78
2023-05-10T11:11:01.196Z,100354.09
2023-05-10T11:13:32.912Z,100030.81
2023-05-10T11:16:10.696Z,99862.19
2023-05-10T11:18:38.064Z,99834.56
2023-05-10T11:21:06.226Z,99825.41
2023-05-10T11:23:48.278Z,99853.13
2023-05-10T11:26:15.322Z,99869.19
2023-05-10T11:28:46.453Z,99899.97
2023-05-10T11:31:20.755Z,99901.25
2023-05-10T11:33:54.284Z,99867.25
2023-05-10T11:36:29.510Z,99865.69
2023-05-10T11:38:57.720Z,99864.06
2023-05-10T11:41:25.462Z,99880.38
2023-05-10T11:43:56.492Z,99879.75
2023-05-10T11:46:25.641Z,99891.13
2023-05-10T11:48:58.340Z,99971.50
2023-05-10T11:51:26.292Z,100002.00
2023-05-10T11:53:57.412Z,99977.16
2023-05-10T11:56:24.719Z,100043.25
2023-05-10T11:58:56.796Z,100066.09
2023-05-10T12:01:24.796Z,100086.97
2023-05-10T12:03:52.598Z,100147.09
2023-05-10T12:06:22.673Z,100146.38
2023-05-10T12:08:53.484Z,100183.56
2023-05-10T12:11:22.743Z,100227.78
2023-05-10T12:13:50.868Z,100216.69
2023-05-10T12:16:19.655Z,100228.25
2023-05-10T12:18:49.485Z,100242.38
2023-05-10T12:21:16.585Z,100243.81
2023-05-10T12:23:43.424Z,100222.09
2023-05-10T12:26:11.219Z,100244.91
2023-05-10T12:28:38.775Z,100257.53
2023-05-10T12:31:07.109Z,100277.25
2023-05-10T12:33:39.924Z,100284.22
2023-05-10T12:36:07.745Z,100286.72
2023-05-10T12:38:35.517Z,100281.69
2023-05-10T12:41:04.618Z,100279.22
2023-05-10T12:43:31.786Z,100274.81
2023-05-10T12:45:58.402Z,100271.34
2023-05-10T12:48:25.016Z,100275.81
2023-05-10T12:50:51.712Z,100262.25
2023-05-10T12:53:18.208Z,100266.66
2023-05-10T12:55:45.418Z,100267.78
2023-05-10T12:58:15.836Z,100270.25
2023-05-10T13:00:48.059Z,100258.31
2023-05-10T13:03:14.635Z,100261.28
2023-05-10T13:05:41.179Z,100272.13
2023-05-10T13:08:07.773Z,100270.97
2023-05-10T13:10:34.280Z,100255.59
2023-05-10T13:13:00.992Z,100259.22
2023-05-10T13:15:27.712Z,100263.66
2023-05-10T13:17:54.838Z,100258.41
2023-05-10T13:20:21.619Z,100258.53
2023-05-10T13:22:50.543Z,100256.81
2023-05-10T13:25:18.075Z,100266.41
2023-05-10T13:27:44.860Z,100265.03
2023-05-10T13:30:12.347Z,100255.56
2023-05-10T13:32:39.457Z,100253.06
2023-05-10T13:35:06.758Z,100248.88
2023-05-10T13:37:36.443Z,100243.94
2023-05-10T13:40:03.003Z,100257.06
2023-05-10T13:42:29.485Z,100243.28
2023-05-10T13:44:56.045Z,100240.53
2023-05-10T13:47:23.398Z,100249.38
2023-05-10T13:49:50.489Z,100244.22
2023-05-10T13:52:17.067Z,100245.16
2023-05-10T13:54:43.646Z,100236.28
2023-05-10T13:57:10.145Z,100239.00
2023-05-10T13:59:36.598Z,100266.56
2023-05-10T14:02:03.488Z,100276.97
2023-05-10T14:04:30.712Z,100286.31
2023-05-10T14:06:58.180Z,100278.59
2023-05-10T14:09:24.673Z,100309.56
2023-05-10T14:11:52.125Z,100272.22
2023-05-10T14:14:18.592Z,100281.13
2023-05-10T14:16:45.792Z,100264.88
2023-05-10T14:19:12.913Z,100278.59
2023-05-10T14:21:39.473Z,100307.44
2023-05-10T14:24:07.654Z,100280.56
2023-05-10T14:26:35.334Z,100271.28
2023-05-10T14:29:01.979Z,100269.19
2023-05-10T14:31:28.642Z,100272.31
2023-05-10T14:33:55.179Z,100256.31
2023-05-10T14:36:21.712Z,100261.84
2023-05-10T14:38:48.551Z,100259.31
2023-05-10T14:41:17.212Z,100251.25
2023-05-10T14:43:43.907Z,100244.06
2023-05-10T14:46:10.894Z,100250.25
2023-05-10T14:48:37.464Z,100257.94
2023-05-10T14:51:04.627Z,100250.25
2023-05-10T14:53:31.212Z,100246.13
2023-05-10T14:55:58.378Z,100236.00
2023-05-10T14:58:25.115Z,100239.25
2023-05-10T15:00:52.057Z,100229.06
2023-05-10T15:03:19.150Z,100230.66
2023-05-10T15:05:46.007Z,100226.53
2023-05-10T15:08:13.516Z,100219.56
2023-05-10T15:10:40.877Z,100212.22
2023-05-10T15:13:07.363Z,100221.97
2023-05-10T15:15:33.924Z,100214.69
2023-05-10T15:18:00.573Z,100215.19
2023-05-10T15:20:27.089Z,100215.44
2023-05-10T15:22:53.625Z,100211.66
2023-05-10T15:25:21.033Z,100215.19
2023-05-10T15:27:47.555Z,100218.59
2023-05-10T15:30:14.326Z,100227.50
2023-05-10T15:32:41.611Z,100227.72
2023-05-10T15:35:11.457Z,100233.72
2023-05-10T15:37:38.553Z,100256.56
2023-05-10T15:40:05.661Z,100238.41
2023-05-10T15:42:32.801Z,100227.94
2023-05-10T15:44:59.881Z,100229.88
2023-05-10T15:47:28.682Z,100227.75
2023-05-10T15:49:55.202Z,100235.59
2023-05-10T15:52:21.922Z,100233.13
2023-05-10T15:54:48.437Z,100234.75
2023-05-10T15:57:14.978Z,100252.78
2023-05-10T15:59:41.708Z,100251.25
2023-05-10T16:02:10.808Z,100227.06
2023-05-10T16:04:37.835Z,100231.09
2023-05-10T16:07:04.401Z,100225.97
2023-05-10T16:09:31.445Z,100238.53
2023-05-10T16:11:58.898Z,100244.50
2023-05-10T16:14:25.439Z,100240.31
2023-05-10T16:16:52.308Z,100232.91
2023-05-10T16:19:21.133Z,100235.53
2023-05-10T16:21:49.939Z,100263.00
2023-05-10T16:24:18.985Z,100240.97
2023-05-10T16:26:46.089Z,100243.97
2023-05-10T16:29:12.601Z,100239.81
2023-05-10T16:31:39.476Z,100238.53
2023-05-10T16:34:07.828Z,100242.53
2023-05-10T16:36:35.276Z,100244.31
2023-05-10T16:39:02.725Z,100248.72
2023-05-10T16:41:29.604Z,100246.97
2023-05-10T16:43:57.596Z,100241.22
2023-05-10T16:46:24.504Z,100241.97
2023-05-10T16:48:51.179Z,100237.41
2023-05-10T16:51:17.880Z,100241.81
2023-05-10T16:53:44.403Z,100235.16
2023-05-10T16:56:11.287Z,100232.75
2023-05-10T16:58:37.898Z,100240.44
2023-05-10T17:01:05.181Z,100237.47
2023-05-10T17:03:31.839Z,100232.53
2023-05-10T17:05:59.424Z,100237.25
2023-05-10T17:08:26.072Z,100238.28
2023-05-10T17:10:52.616Z,100229.81
2023-05-10T17:13:19.240Z,100232.34
2023-05-10T17:15:47.338Z,100238.44
2023-05-10T17:18:14.009Z,100231.25
2023-05-10T17:20:43.307Z,100227.88
2023-05-10T17:23:09.860Z,100227.19
2023-05-10T17:25:36.848Z,100234.03
2023-05-10T17:28:04.041Z,100237.47
2023-05-10T17:30:32.738Z,100230.16
2023-05-10T17:33:01.094Z,100232.00
2023-05-10T17:35:27.942Z,100246.47
2023-05-10T17:37:54.509Z,100234.81
2023-05-10T17:40:21.222Z,100242.72
2023-05-10T17:42:47.767Z,100236.63
2023-05-10T17:45:15.251Z,100241.75
2023-05-10T17:47:42.147Z,100239.03
2023-05-10T17:50:10.103Z,100237.75
2023-05-10T17:52:36.599Z,100240.25
2023-05-10T17:55:03.261Z,100227.19
2023-05-10T17:57:29.898Z,100244.03
2023-05-10T17:59:56.623Z,100252.78
2023-05-10T18:02:23.198Z,100232.50
2023-05-10T18:04:49.887Z,100246.91
2023-05-10T18:07:16.645Z,100241.63
2023-05-10T18:09:43.254Z,100245.13
2023-05-10T18:12:09.772Z,100248.97
2023-05-10T18:14:41.178Z,100243.31
2023-05-10T18:17:08.790Z,100246.63
2023-05-10T18:19:35.459Z,100246.72
2023-05-10T18:22:01.999Z,100247.47
2023-05-10T18:24:38.213Z,100256.19
2023-05-10T18:27:08.827Z,100252.34
2023-05-10T18:29:36.282Z,100260.78
2023-05-10T18:32:03.025Z,100267.59
2023-05-10T18:34:30.083Z,100277.34
2023-05-10T18:36:57.096Z,100286.94
2023-05-10T18:39:24.341Z,100213.50
2023-05-10T18:41:51.356Z,100075.66
2023-05-10T18:44:19.112Z,99999.88
2023-05-10T18:46:46.365Z,99935.31
2023-05-10T18:49:16.409Z,99900.91
2023-05-10T18:51:43.388Z,99878.59
2023-05-10T18:54:10.168Z,99832.34
2023-05-10T18:56:37.338Z,99817.59
2023-05-10T18:59:04.019Z,99792.63
2023-05-10T19:01:30.902Z,99761.81
2023-05-10T19:03:57.834Z,99745.59
2023-05-10T19:06:24.397Z,99740.41
2023-05-10T19:08:50.924Z,99741.34
2023-05-10T19:11:17.593Z,99776.44
2023-05-10T19:13:46.352Z,99785.09
2023-05-10T19:16:16.680Z,99788.59
2023-05-10T19:18:46.690Z,99820.38
2023-05-10T19:21:13.299Z,99833.25
2023-05-10T19:23:42.078Z,99822.97
2023-05-10T19:26:09.538Z,99817.84
2023-05-10T19:28:36.701Z,99817.03
2023-05-10T19:31:03.747Z,99813.59
2023-05-10T19:33:30.512Z,99812.78
2023-05-10T19:35:57.054Z,99815.69
2023-05-10T19:38:24.365Z,99819.84
2023-05-10T19:40:57.528Z,99818.97
2023-05-10T19:43:28.895Z,99830.22
2023-05-10T19:45:58.899Z,99829.34
2023-05-10T19:48:25.894Z,99844.03
2023-05-10T19:50:53.464Z,99847.34
2023-05-10T19:53:20.415Z,99860.28
2023-05-10T19:55:46.998Z,99885.50
2023-05-10T19:58:13.574Z,99890.50
2023-05-10T20:00:40.167Z,99898.88
2023-05-10T20:03:09.132Z,99893.09
2023-05-10T20:05:36.039Z,99867.66
2023-05-10T20:08:02.685Z,99849.53
2023-05-10T20:10:29.421Z,99849.66
2023-05-10T20:12:55.991Z,99866.19
2023-05-10T20:15:23.596Z,99830.88
2023-05-10T20:17:53.308Z,99821.31
2023-05-10T20:20:20.565Z,99810.78
2023-05-10T20:22:48.656Z,99811.63
2023-05-10T20:25:16.495Z,99796.25
2023-05-10T20:27:43.276Z,99795.50
2023-05-10T20:30:10.514Z,99784.38
2023-05-10T20:32:37.821Z,99786.31
2023-05-10T20:35:05.273Z,99786.34
2023-05-10T20:37:31.956Z,99779.34
2023-05-10T20:39:58.748Z,99780.31
2023-05-10T20:42:25.424Z,99776.78
2023-05-10T20:44:52.221Z,99778.69
2023-05-10T20:47:19.058Z,99777.03
2023-05-10T20:49:46.039Z,99778.84
2023-05-10T20:52:13.073Z,99787.38
2023-05-10T20:54:39.598Z,99776.41
2023-05-10T20:57:06.388Z,99787.44
2023-05-10T20:59:33.062Z,99786.69
2023-05-10T21:01:59.604Z,99792.75
2023-05-10T21:04:26.193Z,99795.22
2023-05-10T21:06:53.353Z,99793.53
2023-05-10T21:09:19.986Z,99798.66
2023-05-10T21:11:46.685Z,99815.78
2023-05-10T21:14:13.881Z,99805.59
2023-05-10T21:16:41.227Z,99826.13
2023-05-10T21:19:07.979Z,99819.25
2023-05-10T21:21:34.933Z,99819.31
2023-05-10T21:24:01.576Z,99820.97
2023-05-10T21:26:28.695Z,99829.47
2023-05-10T21:28:55.517Z,99823.41
2023-05-10T21:31:22.114Z,99824.56
2023-05-10T21:33:48.847Z,99829.63
2023-05-10T21:36:15.442Z,99832.16
2023-05-10T21:38:44.687Z,99838.97
2023-05-10T21:41:11.372Z,99853.53
2023-05-10T21:43:38.022Z,99851.91
2023-05-10T21:46:04.786Z,99857.22
2023-05-10T21:48:31.429Z,99861.44
2023-05-10T21:50:58.006Z,99852.84
2023-05-10T21:53:24.912Z,99852.13
2023-05-10T21:55:51.511Z,99864.91
2023-05-10T21:58:18.197Z,99882.03
2023-05-10T22:00:44.948Z,99880.34
2023-05-10T22:03:11.683Z,99896.56
2023-05-10T22:05:38.693Z,99899.13
2023-05-10T22:08:06.399Z,99910.34
2023-05-10T22:10:33.006Z,99919.84
2023-05-10T22:13:00.210Z,99918.94
2023-05-10T22:15:27.168Z,99936.81
2023-05-10T22:17:53.880Z,99936.94
2023-05-10T22:20:21.112Z,99953.81
2023-05-10T22:22:48.061Z,99944.47
2023-05-10T22:25:14.664Z,99949.63
2023-05-10T22:27:47.048Z,99947.06
2023-05-10T22:30:13.703Z,99957.97
2023-05-10T22:32:40.293Z,99938.28
2023-05-10T22:35:07.675Z,99939.09
2023-05-10T22:37:34.211Z,99919.41
2023-05-10T22:40:00.783Z,99920.19
2023-05-10T22:42:27.312Z,99919.34
2023-05-10T22:44:53.838Z,99914.06
2023-05-10T22:47:20.646Z,99913.91
2023-05-10T22:49:47.630Z,99906.44
2023-05-10T22:52:14.163Z,99911.28
2023-05-10T22:54:40.698Z,99913.06
2023-05-10T22:57:07.385Z,99917.22
2023-05-10T22:59:34.240Z,99925.78
2023-05-10T23:02:00.828Z,99922.31
2023-05-10T23:04:27.468Z,99921.47
2023-05-10T23:06:54.099Z,99939.56
2023-05-10T23:09:20.647Z,99934.41
2023-05-10T23:11:47.403Z,99930.69
2023-05-10T23:14:13.912Z,99925.59
2023-05-10T23:16:40.682Z,99934.31
2023-05-10T23:19:07.435Z,99947.72
2023-05-10T23:21:34.525Z,99943.31
2023-05-10T23:24:01.482Z,99941.31
2023-05-10T23:26:28.039Z,99942.34
2023-05-10T23:28:54.649Z,99946.72
2023-05-10T23:31:21.673Z,99940.09
2023-05-10T23:33:48.188Z,99950.00
2023-05-10T23:36:14.759Z,99947.47
2023-05-10T23:38:41.364Z,99947.09
2023-05-10T23:41:07.881Z,99945.06
2023-05-10T23:43:34.422Z,99936.38
2023-05-10T23:46:01.726Z,99925.22
2023-05-10T23:48:28.416Z,99934.59
2023-05-10T23:50:55.003Z,99922.63
2023-05-10T23:53:21.852Z,99922.53
2023-05-10T23:55:48.557Z,99918.44
2023-05-10T23:58:15.132Z,99912.38
